Time;durP1;ratioP1;P1;durP2;ratioP2;P2;SDS_P1;SDS_P2;PMS_P1;PMS_P2;Temp;Humidity;BMP_temperature;BMP_pressure;BME280_temperature;BME280_humidity;BME280_pressure;Samples;Min_cycle;Max_cycle;Signal;HPM_P1;HPM_P2
2023/01/08 00:00:23;;;;;;;4.97;1.67;;;;;;;8.43;100.00;100081.28;4996249;28;20173;-63
2023/01/08 00:02:48;;;;;;;13.40;2.10;;;;;;;8.53;100.00;100076.53;5014259;28;20037;-64
2023/01/08 00:05:14;;;;;;;10.70;2.45;;;;;;;8.39;100.00;100051.66;4996742;28;20041;-63
2023/01/08 00:07:39;;;;;;;9.55;2.08;;;;;;;8.62;100.00;100079.69;5014200;28;20543;-62
2023/01/08 00:10:05;;;;;;;12.75;1.90;;;;;;;8.63;100.00;100078.78;5013836;28;20037;-64
2023/01/08 00:12:30;;;;;;;4.28;1.20;;;;;;;8.69;100.00;100081.19;4996521;28;20034;-61
2023/01/08 00:14:56;;;;;;;3.88;1.60;;;;;;;8.69;100.00;100073.31;5013659;28;20030;-64
2023/01/08 00:17:21;;;;;;;4.28;1.45;;;;;;;8.67;100.00;100075.13;5013749;28;20034;-63
2023/01/08 00:19:46;;;;;;;5.97;1.40;;;;;;;8.50;100.00;100048.66;5013481;28;20470;-64
2023/01/08 00:22:12;;;;;;;4.75;1.38;;;;;;;8.34;100.00;100016.03;5013684;28;20041;-63
2023/01/08 00:24:37;;;;;;;5.93;1.38;;;;;;;8.61;100.00;100053.53;5013799;28;20044;-63
2023/01/08 00:27:02;;;;;;;6.35;2.05;;;;;;;8.31;100.00;100009.16;5013565;28;20037;-63
2023/01/08 00:29:28;;;;;;;8.20;2.05;;;;;;;8.60;100.00;100041.31;4996078;28;20069;-64
2023/01/08 00:31:53;;;;;;;5.97;1.58;;;;;;;8.52;100.00;100031.09;5013817;28;20542;-64
2023/01/08 00:34:18;;;;;;;9.07;2.05;;;;;;;8.58;100.00;100033.47;5013644;28;20412;-62
2023/01/08 00:36:44;;;;;;;9.70;2.28;;;;;;;8.58;100.00;100049.22;5013459;28;20037;-64
2023/01/08 00:39:09;;;;;;;8.57;2.35;;;;;;;8.61;100.00;100033.38;5013464;28;20034;-64
2023/01/08 00:41:34;;;;;;;9.27;2.15;;;;;;;8.59;100.00;100019.47;5013362;28;20049;-64
2023/01/08 00:44:00;;;;;;;5.35;2.10;;;;;;;8.65;100.00;100026.25;5012705;28;20034;-65
2023/01/08 00:46:25;;;;;;;7.68;2.40;;;;;;;8.37;100.00;99969.59;5013255;28;20033;-63
2023/01/08 00:48:50;;;;;;;8.10;2.25;;;;;;;8.62;100.00;100016.72;5013466;28;20030;-63
2023/01/08 00:51:16;;;;;;;6.65;2.10;;;;;;;8.71;100.00;100018.16;4995887;28;20037;-63
2023/01/08 00:53:41;;;;;;;7.32;3.05;;;;;;;8.76;100.00;100022.31;5013128;28;20400;-63
2023/01/08 00:56:08;;;;;;;8.05;2.05;;;;;;;8.80;100.00;100012.56;5013212;28;20481;-63
2023/01/08 00:58:34;;;;;;;8.52;2.50;;;;;;;8.78;100.00;100007.38;5013186;28;20048;-62
2023/01/08 01:01:00;;;;;;;8.52;2.03;;;;;;;8.39;100.00;99948.53;5012526;28;20144;-63
2023/01/08 01:03:25;;;;;;;12.48;3.30;;;;;;;8.35;100.00;99958.28;4995548;28;20040;-63
2023/01/08 01:06:02;;;;;;;7.22;2.75;;;;;;;8.65;100.00;100019.22;5012718;28;20034;-64
2023/01/08 01:08:28;;;;;;;8.90;2.53;;;;;;;8.70;100.00;100022.53;5013021;28;20370;-64
2023/01/08 01:10:53;;;;;;;6.47;2.53;;;;;;;8.69;100.00;100012.97;5012824;28;20156;-63
2023/01/08 01:13:19;;;;;;;7.47;2.30;;;;;;;8.60;100.00;99997.56;5012789;28;20040;-63
2023/01/08 01:15:44;;;;;;;6.55;2.72;;;;;;;8.70;100.00;100005.97;5012672;28;20048;-62
2023/01/08 01:18:10;;;;;;;9.77;2.65;;;;;;;8.36;100.00;99940.78;4995391;28;20104;-64
2023/01/08 01:20:35;;;;;;;10.10;2.60;;;;;;;8.41;100.00;99950.19;4995057;28;20175;-62
2023/01/08 01:23:00;;;;;;;8.95;2.17;;;;;;;8.77;100.00;100010.03;5012689;28;20026;-63
2023/01/08 01:25:26;;;;;;;11.05;2.63;;;;;;;8.70;100.00;99995.47;4995065;28;20049;-63
2023/01/08 01:27:51;;;;;;;9.80;2.35;;;;;;;8.63;100.00;100004.47;5012554;28;20050;-63
2023/01/08 01:30:16;;;;;;;11.25;2.85;;;;;;;8.37;100.00;99960.84;4995117;28;20041;-63
2023/01/08 01:32:42;;;;;;;5.63;2.42;;;;;;;8.60;100.00;100004.59;5012650;28;20038;-64
2023/01/08 01:35:07;;;;;;;10.60;3.15;;;;;;;8.47;100.00;100005.03;5012710;28;20038;-64
2023/01/08 01:37:33;;;;;;;11.23;2.30;;;;;;;8.11;100.00;99935.56;5012351;28;20037;-65
2023/01/08 01:39:58;;;;;;;6.60;2.63;;;;;;;8.52;100.00;100006.66;5012007;28;20046;-63
2023/01/08 01:42:39;;;;;;;6.97;2.53;;;;;;;8.16;100.00;99959.00;5012521;28;20197;-63
2023/01/08 01:45:10;;;;;;;9.75;2.35;;;;;;;8.36;100.00;100014.22;5012700;28;20240;-63
2023/01/08 01:47:37;;;;;;;6.28;2.33;;;;;;;8.00;100.00;99955.22;5012515;28;20048;-64
2023/01/08 01:50:12;;;;;;;8.77;3.03;;;;;;;7.89;100.00;99945.09;5012467;28;20042;-64
2023/01/08 01:52:42;;;;;;;6.25;2.38;;;;;;;7.79;100.00;99941.13;5012619;28;20037;-64
2023/01/08 01:55:12;;;;;;;7.70;2.55;;;;;;;7.75;100.00;99939.50;4994484;28;20034;-64
2023/01/08 01:57:38;;;;;;;5.73;2.53;;;;;;;7.84;100.00;99950.53;5012099;28;20500;-64
2023/01/08 02:00:06;;;;;;;3.33;1.95;;;;;;;8.15;100.00;100012.31;4994338;28;20049;-64
2023/01/08 02:02:32;;;;;;;6.07;1.92;;;;;;;7.76;100.00;99949.09;5010523;28;20026;-63
2023/01/08 02:04:58;;;;;;;5.70;2.10;;;;;;;7.81;100.00;99957.63;5031132;28;20030;-64
2023/01/08 02:07:29;;;;;;;3.45;1.70;;;;;;;8.07;100.00;100014.34;4997924;28;20111;-64
2023/01/08 02:10:03;;;;;;;3.17;1.60;;;;;;;8.04;100.00;99998.75;5014471;28;20121;-63
2023/01/08 02:12:29;;;;;;;3.38;2.03;;;;;;;8.07;100.00;99993.38;5031893;28;20083;-63
2023/01/08 02:15:03;;;;;;;5.05;1.70;;;;;;;8.05;100.00;99988.22;5031878;28;20022;-63
2023/01/08 02:17:53;;;;;;;6.82;1.80;;;;;;;7.98;100.00;99983.22;5014079;28;20025;-63
2023/01/08 02:20:18;;;;;;;6.95;2.00;;;;;;;7.96;100.00;99998.16;5031815;28;20041;-62
2023/01/08 02:22:49;;;;;;;5.75;1.67;;;;;;;7.81;100.00;99960.25;5031859;28;20063;-62
2023/01/08 02:25:15;;;;;;;9.98;2.30;;;;;;;7.94;100.00;99993.81;5014425;28;20473;-63
2023/01/08 02:27:43;;;;;;;5.15;1.63;;;;;;;7.58;100.00;99926.13;5031552;28;20037;-62
2023/01/08 02:30:09;;;;;;;3.88;1.95;;;;;;;7.59;100.00;99930.47;5013506;28;20289;-62
2023/01/08 02:32:39;;;;;;;8.15;1.88;;;;;;;7.56;100.00;99941.88;5014043;28;20112;-63
2023/01/08 02:35:06;;;;;;;5.57;2.25;;;;;;;7.85;100.00;99988.06;5014040;28;20033;-63
2023/01/08 02:37:31;;;;;;;5.03;2.00;;;;;;;7.65;100.00;99961.66;4997772;28;20092;-64
2023/01/08 02:40:10;;;;;;;8.60;2.15;;;;;;;7.56;100.00;99936.66;5031719;28;20045;-64
2023/01/08 02:42:39;;;;;;;7.63;2.75;;;;;;;7.43;100.00;99911.81;5013932;28;20485;-64
2023/01/08 02:45:10;;;;;;;9.60;2.42;;;;;;;7.74;100.00;99974.47;5031472;28;20033;-63
2023/01/08 02:47:40;;;;;;;8.65;1.90;;;;;;;7.75;100.00;99965.69;5031593;28;20414;-65
2023/01/08 02:50:27;;;;;;;5.22;2.47;;;;;;;7.79;100.00;99985.66;5014028;28;20029;-64
2023/01/08 02:53:03;;;;;;;4.82;1.60;;;;;;;7.79;100.00;99986.47;5013921;28;20518;-63
2023/01/08 02:55:29;;;;;;;9.73;2.00;;;;;;;7.44;100.00;99907.44;5013901;28;20384;-64
2023/01/08 02:57:55;;;;;;;7.95;1.90;;;;;;;7.81;100.00;99989.06;5031562;28;20358;-63
2023/01/08 03:00:21;;;;;;;5.40;1.85;;;;;;;7.74;100.00;99972.69;5031316;28;20088;-62
2023/01/08 03:02:50;;;;;;;5.68;1.42;;;;;;;7.46;100.00;99923.94;5031331;28;20025;-62
2023/01/08 03:05:25;;;;;;;7.05;1.52;;;;;;;7.94;100.00;99995.56;5031480;28;20149;-62
2023/01/08 03:07:50;;;;;;;4.68;1.45;;;;;;;7.92;100.00;99984.31;4998682;28;20030;-61
2023/01/08 03:10:18;;;;;;;6.18;1.77;;;;;;;7.65;100.00;99927.63;5017475;28;20038;-62
2023/01/08 03:12:52;;;;;;;6.80;1.88;;;;;;;8.05;100.00;100011.81;5017293;28;20040;-63
2023/01/08 03:15:23;;;;;;;9.48;1.70;;;;;;;8.09;100.00;99997.66;5017125;28;20477;-63
2023/01/08 03:17:50;;;;;;;6.70;1.63;;;;;;;7.59;100.00;99914.78;5000979;28;20383;-63
2023/01/08 03:20:20;;;;;;;7.43;1.90;;;;;;;8.06;100.00;99989.03;5034656;28;20036;-63
2023/01/08 03:22:49;;;;;;;10.07;2.10;;;;;;;7.98;100.00;99999.81;5017147;28;20048;-64
2023/01/08 03:25:18;;;;;;;9.40;2.08;;;;;;;7.58;100.00;99928.75;5017439;28;20026;-64
2023/01/08 03:27:47;;;;;;;7.25;1.77;;;;;;;7.93;100.00;99979.03;5017017;28;20029;-63
2023/01/08 03:30:13;;;;;;;13.80;2.17;;;;;;;7.93;100.00;99965.94;5017124;28;20481;-62
2023/01/08 03:32:40;;;;;;;9.20;2.22;;;;;;;8.02;100.00;99972.59;5034590;28;20064;-62
2023/01/08 03:35:09;;;;;;;12.32;1.80;;;;;;;7.81;100.00;99939.28;5016849;28;20043;-63
2023/01/08 03:37:37;;;;;;;9.85;2.38;;;;;;;7.69;100.00;99922.25;5034765;28;20036;-62
2023/01/08 03:40:06;;;;;;;7.57;1.75;;;;;;;7.88;100.00;99961.75;5034296;28;20041;-63
2023/01/08 03:42:32;;;;;;;8.43;2.08;;;;;;;7.89;100.00;99989.66;5034177;28;20508;-62
2023/01/08 03:45:01;;;;;;;5.82;1.50;;;;;;;7.73;100.00;99971.00;5016510;28;20044;-63
2023/01/08 03:47:29;;;;;;;7.88;2.17;;;;;;;7.71;100.00;99987.66;5034074;28;20481;-63
2023/01/08 03:49:56;;;;;;;12.27;2.10;;;;;;;7.64;100.00;100000.13;5016890;28;20064;-63
2023/01/08 03:52:27;;;;;;;10.55;2.00;;;;;;;7.23;100.00;99927.34;5016736;28;20061;-64
2023/01/08 03:54:53;;;;;;;;;;;;;;;7.51;100.00;99987.47;5034672;28;20072;-64
2023/01/08 03:57:18;;;;;;;7.22;1.92;;;;;;;7.29;100.00;99993.44;5034098;28;19956;-64
2023/01/08 03:59:43;;;;;;;10.55;2.00;;;;;;;6.86;100.00;99930.28;4999636;28;20071;-63
2023/01/08 04:02:09;;;;;;;13.98;2.30;;;;;;;7.16;100.00;99975.53;5034027;28;20033;-64
2023/01/08 04:04:34;;;;;;;11.27;1.90;;;;;;;6.51;100.00;99866.00;5034233;28;20030;-63
2023/01/08 04:06:59;;;;;;;10.43;2.00;;;;;;;6.79;100.00;99915.69;5034019;28;20037;-62
2023/01/08 04:09:25;;;;;;;10.27;1.73;;;;;;;7.20;100.00;99987.63;5033931;28;20038;-63
2023/01/08 04:11:50;;;;;;;8.57;2.15;;;;;;;7.08;100.00;99967.94;5033864;28;20037;-62
2023/01/08 04:14:17;;;;;;;8.68;1.80;;;;;;;7.09;100.00;99974.88;5033665;28;20029;-59
2023/01/08 04:16:43;;;;;;;9.95;2.30;;;;;;;6.70;100.00;99916.84;5032975;28;20079;-58
2023/01/08 04:19:12;;;;;;;10.40;2.67;;;;;;;6.63;100.00;99907.47;5033603;28;20369;-58
2023/01/08 04:21:38;;;;;;;10.75;1.80;;;;;;;6.81;100.00;99953.09;5032541;28;20037;-58
2023/01/08 04:24:03;;;;;;;8.63;1.95;;;;;;;6.91;100.00;99967.63;5032411;28;20388;-58
2023/01/08 04:26:29;;;;;;;9.40;1.80;;;;;;;6.56;100.00;99905.09;5032652;28;20026;-58
2023/01/08 04:28:54;;;;;;;8.93;2.03;;;;;;;7.00;100.00;99975.19;5032802;28;20044;-57
2023/01/08 04:31:19;;;;;;;7.70;2.03;;;;;;;6.75;100.00;99922.78;5032909;28;20038;-59
2023/01/08 04:33:45;;;;;;;7.07;1.98;;;;;;;7.01;100.00;99968.16;5033297;28;20064;-60
2023/01/08 04:36:10;;;;;;;9.32;3.05;;;;;;;7.05;100.00;99982.88;5015599;28;20029;-59
2023/01/08 04:38:35;;;;;;;6.65;1.73;;;;;;;6.62;100.00;99895.31;5015440;28;20033;-58
2023/01/08 04:41:01;;;;;;;5.18;1.23;;;;;;;7.03;100.00;99962.00;5015435;28;20037;-59
2023/01/08 04:43:27;;;;;;;6.20;1.65;;;;;;;6.53;100.00;99884.28;4999021;28;20034;-58
2023/01/08 04:45:57;;;;;;;10.38;2.03;;;;;;;6.64;100.00;99903.09;5032913;28;20056;-57
2023/01/08 04:48:22;;;;;;;8.52;2.13;;;;;;;6.52;100.00;99895.63;5033189;28;20484;-58
2023/01/08 04:50:48;;;;;;;6.65;1.55;;;;;;;6.88;100.00;99972.09;5033185;28;20041;-58
2023/01/08 04:53:13;;;;;;;8.20;1.85;;;;;;;6.36;100.00;99870.88;5033067;28;20040;-58
2023/01/08 04:55:38;;;;;;;4.53;1.70;;;;;;;6.76;100.00;99948.03;5032955;28;20048;-55
2023/01/08 04:58:04;;;;;;;6.47;1.60;;;;;;;6.79;100.00;99952.31;5014989;28;20396;-58
2023/01/08 05:00:29;;;;;;;5.93;1.85;;;;;;;6.78;100.00;99945.34;5028453;28;20106;-60
2023/01/08 05:02:55;;;;;;;5.03;1.77;;;;;;;6.44;100.00;99879.31;5032344;28;20108;-58
2023/01/08 05:05:20;;;;;;;7.55;1.80;;;;;;;6.79;100.00;99945.31;5032257;28;20708;-59
2023/01/08 05:07:45;;;;;;;7.57;2.10;;;;;;;6.69;100.00;99927.34;5031927;28;20034;-57
2023/01/08 05:10:10;;;;;;;6.22;1.88;;;;;;;6.41;100.00;99871.56;5014260;28;20121;-58
2023/01/08 05:12:36;;;;;;;12.68;2.38;;;;;;;6.82;100.00;99938.28;5032093;28;20037;-58
2023/01/08 05:15:01;;;;;;;10.05;2.28;;;;;;;6.43;100.00;99886.31;5032352;28;20044;-58
2023/01/08 05:17:27;;;;;;;9.13;2.00;;;;;;;6.30;100.00;99858.00;5031985;28;20120;-57
2023/01/08 05:19:52;;;;;;;5.97;2.08;;;;;;;6.76;100.00;99928.88;5031483;28;20076;-58
2023/01/08 05:22:17;;;;;;;11.15;2.72;;;;;;;6.70;100.00;99937.75;5031607;28;20056;-59
2023/01/08 05:24:42;;;;;;;6.00;2.25;;;;;;;6.67;100.00;99943.09;5032605;28;20033;-58
2023/01/08 05:27:08;;;;;;;12.65;2.72;;;;;;;6.65;100.00;99938.81;5032163;28;20037;-57
2023/01/08 05:29:33;;;;;;;8.90;2.63;;;;;;;6.63;100.00;99940.59;5031987;28;20045;-57
2023/01/08 05:31:58;;;;;;;10.05;3.15;;;;;;;6.54;100.00;99933.88;5032223;28;20044;-59
2023/01/08 05:34:24;;;;;;;11.00;2.75;;;;;;;6.62;100.00;99933.66;5032409;28;20096;-58
2023/01/08 05:36:49;;;;;;;8.82;2.30;;;;;;;6.55;100.00;99938.22;5032068;28;20396;-58
2023/01/08 05:39:14;;;;;;;12.48;2.63;;;;;;;6.15;100.00;99851.47;5031669;28;20041;-58
2023/01/08 05:41:40;;;;;;;10.50;2.58;;;;;;;6.19;100.00;99861.75;5032022;28;20037;-56
2023/01/08 05:44:05;;;;;;;11.55;2.92;;;;;;;6.33;100.00;99889.25;5014065;28;20029;-59
2023/01/08 05:46:30;;;;;;;8.35;2.60;;;;;;;6.63;100.00;99941.44;5032480;28;20040;-58
2023/01/08 05:48:56;;;;;;;10.93;2.78;;;;;;;6.20;100.00;99868.72;5014343;28;20103;-59
2023/01/08 05:51:22;;;;;;;9.63;2.38;;;;;;;6.22;100.00;99869.50;5032052;28;20542;-58
2023/01/08 05:53:47;;;;;;;12.13;3.33;;;;;;;6.60;100.00;99944.16;5032020;28;20113;-57
2023/01/08 05:56:13;;;;;;;11.73;2.60;;;;;;;6.43;100.00;99907.22;5031938;28;20037;-57
2023/01/08 05:58:38;;;;;;;8.32;2.42;;;;;;;6.45;100.00;99926.31;5014119;28;20033;-58
2023/01/08 06:01:06;;;;;;;10.73;2.50;;;;;;;6.55;100.00;99943.44;5031742;28;20063;-58
2023/01/08 06:03:32;;;;;;;10.38;2.10;;;;;;;6.25;100.00;99904.31;5032159;28;20120;-58
2023/01/08 06:06:01;;;;;;;10.82;2.83;;;;;;;6.20;100.00;99902.69;4997927;28;20560;-59
2023/01/08 06:08:27;;;;;;;13.18;2.60;;;;;;;6.15;100.00;99907.19;5032082;28;20060;-59
2023/01/08 06:10:53;;;;;;;12.52;2.88;;;;;;;6.00;100.00;99885.88;5031665;28;20041;-59
2023/01/08 06:13:18;;;;;;;8.68;2.42;;;;;;;5.95;100.00;99874.72;5032130;28;20075;-60
2023/01/08 06:15:44;;;;;;;9.90;2.70;;;;;;;6.38;100.00;99957.91;5014220;28;20030;-59
2023/01/08 06:18:09;;;;;;;9.98;2.83;;;;;;;6.17;100.00;99925.44;5031731;28;20029;-59
2023/01/08 06:20:34;;;;;;;18.60;3.17;;;;;;;6.22;100.00;99941.81;5031783;28;20046;-58
2023/01/08 06:23:00;;;;;;;12.52;2.78;;;;;;;5.87;100.00;99889.72;5013903;28;20061;-58
2023/01/08 06:25:25;;;;;;;9.90;2.20;;;;;;;6.18;100.00;99938.47;5013929;28;20034;-59
2023/01/08 06:27:51;;;;;;;10.60;2.17;;;;;;;5.93;100.00;99882.56;5031345;28;20117;-58
2023/01/08 06:30:16;;;;;;;8.05;2.55;;;;;;;5.96;100.00;99873.78;5013854;28;20392;-58
2023/01/08 06:32:42;;;;;;;6.40;1.98;;;;;;;6.25;100.00;99930.44;5014148;28;20034;-58
2023/01/08 06:35:07;;;;;;;13.10;2.45;;;;;;;6.20;100.00;99928.81;5031485;28;20041;-58
2023/01/08 06:37:33;;;;;;;8.73;2.30;;;;;;;5.82;100.00;99874.16;5031573;28;20069;-59
2023/01/08 06:39:58;;;;;;;8.93;2.97;;;;;;;5.89;100.00;99872.28;5031424;28;20049;-58
2023/01/08 06:42:23;;;;;;;11.52;3.35;;;;;;;6.26;100.00;99929.53;5014484;28;20057;-57
2023/01/08 06:44:49;;;;;;;8.30;2.47;;;;;;;6.31;100.00;99922.41;5034753;28;20484;-58
2023/01/08 06:47:14;;;;;;;9.93;2.35;;;;;;;6.22;100.00;99911.31;5035321;28;20033;-58
2023/01/08 06:49:39;;;;;;;13.02;2.22;;;;;;;5.97;100.00;99880.75;5035387;28;20504;-58
2023/01/08 06:52:05;;;;;;;12.80;2.67;;;;;;;6.22;100.00;99906.09;5034719;28;20112;-57
2023/01/08 06:54:30;;;;;;;6.60;2.42;;;;;;;6.34;100.00;99924.94;5035017;28;20403;-59
2023/01/08 06:56:55;;;;;;;8.40;2.30;;;;;;;6.30;100.00;99929.41;5017344;28;20048;-58
2023/01/08 06:59:21;;;;;;;8.25;2.60;;;;;;;5.98;100.00;99878.06;5034844;28;20045;-55
2023/01/08 07:01:46;;;;;;;12.00;2.60;;;;;;;6.29;100.00;99937.28;5034772;28;20060;-58
2023/01/08 07:04:11;;;;;;;11.18;2.40;;;;;;;6.25;100.00;99909.53;5035180;28;20439;-61
2023/01/08 07:06:37;;;;;;;7.15;2.05;;;;;;;6.13;100.00;99893.31;5034730;28;20489;-57
2023/01/08 07:09:02;;;;;;;11.27;2.72;;;;;;;6.23;100.00;99902.59;5034983;28;20531;-58
2023/01/08 07:11:27;;;;;;;10.27;2.30;;;;;;;6.28;100.00;99925.09;5034786;28;20033;-58
2023/01/08 07:13:54;;;;;;;8.55;2.13;;;;;;;6.31;100.00;99922.41;5034675;28;20488;-59
2023/01/08 07:16:20;;;;;;;9.85;2.45;;;;;;;6.28;100.00;99915.50;5017174;28;20079;-57
2023/01/08 07:18:45;;;;;;;11.68;2.42;;;;;;;6.19;100.00;99921.88;5034632;28;20116;-58
2023/01/08 07:21:10;;;;;;;9.40;2.20;;;;;;;5.91;100.00;99873.06;5034757;28;20095;-58
2023/01/08 07:23:37;;;;;;;7.70;2.13;;;;;;;6.07;100.00;99903.94;5034682;28;20043;-59
2023/01/08 07:26:03;;;;;;;8.82;2.53;;;;;;;6.12;100.00;99916.88;5016630;28;20038;-59
2023/01/08 07:28:29;;;;;;;5.75;1.80;;;;;;;6.12;100.00;99932.56;5016626;28;20385;-58
2023/01/08 07:30:55;;;;;;;8.75;3.08;;;;;;;6.08;100.00;99926.53;5034158;28;20034;-57
2023/01/08 07:33:20;;;;;;;13.02;3.22;;;;;;;6.02;100.00;99928.47;5034539;28;20041;-59
2023/01/08 07:35:55;;;;;;;11.20;2.30;;;;;;;5.85;100.00;99902.84;5016319;28;20035;-59
2023/01/08 07:38:21;;;;;;;8.15;2.10;;;;;;;5.94;100.00;99904.34;5016617;28;20389;-59
2023/01/08 07:40:46;;;;;;;12.88;2.45;;;;;;;5.58;100.00;99861.78;5033976;28;20040;-57
2023/01/08 07:43:12;;;;;;;9.63;2.25;;;;;;;5.47;100.00;99832.50;5034066;28;20120;-58
2023/01/08 07:45:38;;;;;;;8.20;2.33;;;;;;;5.85;100.00;99917.59;5034458;28;20447;-59
2023/01/08 07:48:04;;;;;;;11.32;2.65;;;;;;;5.32;100.00;99833.78;5016398;28;20465;-58
2023/01/08 07:50:29;;;;;;;12.88;2.83;;;;;;;5.43;100.00;99849.19;5034152;28;20029;-58
2023/01/08 07:52:59;;;;;;;10.80;2.08;;;;;;;5.86;100.00;99920.22;5033511;28;20099;-57
2023/01/08 07:55:25;;;;;;;6.82;2.38;;;;;;;5.89;100.00;99921.91;5015978;28;20033;-57
2023/01/08 07:57:50;;;;;;;9.77;2.90;;;;;;;5.44;100.00;99845.66;5016575;28;20087;-57
2023/01/08 08:00:16;;;;;;;12.95;2.03;;;;;;;5.86;100.00;99917.63;5033755;28;20050;-58
2023/01/08 08:02:41;;;;;;;13.23;3.28;;;;;;;5.86;100.00;99909.78;5034103;28;20088;-60
2023/01/08 08:05:07;;;;;;;10.35;2.30;;;;;;;5.90;100.00;99915.75;5033941;28;20442;-57
2023/01/08 08:07:32;;;;;;;11.45;2.70;;;;;;;5.98;100.00;99908.56;5032342;28;20477;-58
2023/01/08 08:09:57;;;;;;;10.43;2.50;;;;;;;5.80;100.00;99869.88;5032596;28;20393;-58
2023/01/08 08:12:23;;;;;;;10.13;2.47;;;;;;;5.88;100.00;99875.78;5033241;28;20040;-58
2023/01/08 08:14:48;;;;;;;12.40;2.45;;;;;;;5.92;100.00;99899.16;5033639;28;20037;-56
2023/01/08 08:17:13;;;;;;;14.68;2.33;;;;;;;5.96;100.00;99895.53;5032517;28;20099;-57
2023/01/08 08:19:42;;;;;;;12.93;2.80;;;;;;;5.90;100.00;99895.72;5014949;28;20041;-58
2023/01/08 08:22:08;;;;;;;16.95;3.63;;;;;;;5.93;100.00;99892.16;5033223;28;20060;-58
2023/01/08 08:24:33;;;;;;;13.70;2.22;;;;;;;5.48;100.00;99815.97;4999159;28;20033;-57
2023/01/08 08:26:58;;;;;;;9.52;2.38;;;;;;;5.91;100.00;99886.13;5014733;28;20053;-56
2023/01/08 08:29:23;;;;;;;7.88;1.90;;;;;;;5.88;100.00;99887.09;5032174;28;20040;-59
2023/01/08 08:31:49;;;;;;;12.23;2.25;;;;;;;5.62;100.00;99838.19;5033311;28;20112;-59
2023/01/08 08:34:14;;;;;;;11.63;3.10;;;;;;;5.87;100.00;99866.22;5033468;28;20029;-59
2023/01/08 08:36:40;;;;;;;12.32;3.05;;;;;;;5.94;100.00;99894.75;5015441;28;20033;-59
2023/01/08 08:39:05;;;;;;;11.60;2.75;;;;;;;5.89;100.00;99869.66;5015102;28;20041;-58
2023/01/08 08:41:30;;;;;;;11.50;2.40;;;;;;;5.60;100.00;99823.47;5032873;28;20029;-59
2023/01/08 08:43:56;;;;;;;11.50;2.30;;;;;;;5.56;100.00;99807.03;5033034;28;20037;-58
2023/01/08 08:46:21;;;;;;;11.77;2.60;;;;;;;5.99;100.00;99887.63;5014832;28;20038;-59
2023/01/08 08:48:46;;;;;;;17.33;3.65;;;;;;;5.73;100.00;99832.63;5015144;28;20029;-59
2023/01/08 08:51:12;;;;;;;16.23;2.90;;;;;;;5.56;100.00;99800.94;5015105;28;20480;-60
2023/01/08 08:53:38;;;;;;;13.48;2.28;;;;;;;5.57;100.00;99803.50;5032567;28;20025;-59
2023/01/08 08:56:04;;;;;;;22.70;12.00;;;;;;;6.05;100.00;99865.69;5032547;28;20064;-59
2023/01/08 08:58:29;;;;;;;20.52;8.13;;;;;;;6.05;100.00;99878.75;5015027;28;20030;-57
2023/01/08 09:00:54;;;;;;;14.38;2.63;;;;;;;6.09;100.00;99862.97;5032272;28;20073;-60
2023/01/08 09:03:20;;;;;;;14.95;3.63;;;;;;;6.14;100.00;99876.72;5032352;28;20038;-59
2023/01/08 09:05:45;;;;;;;9.77;2.22;;;;;;;6.19;100.00;99861.75;5013540;28;20052;-58
2023/01/08 09:08:11;;;;;;;14.90;2.72;;;;;;;5.78;100.00;99778.53;5014689;28;20124;-59
2023/01/08 09:10:38;;;;;;;8.35;2.40;;;;;;;5.76;100.00;99769.03;5032492;28;20518;-59
2023/01/08 09:13:04;;;;;;;10.60;2.47;;;;;;;6.33;100.00;99850.06;5032508;28;20063;-59
2023/01/08 09:15:29;;;;;;;8.82;2.13;;;;;;;5.95;100.00;99768.47;5032723;28;20072;-57
2023/01/08 09:17:55;;;;;;;10.77;2.58;;;;;;;6.46;100.00;99852.22;5032386;28;20096;-58
2023/01/08 09:20:21;;;;;;;8.77;2.60;;;;;;;6.48;100.00;99849.59;5014678;28;20041;-58
2023/01/08 09:22:46;;;;;;;13.02;2.90;;;;;;;6.56;100.00;99840.59;5032160;28;20400;-58
2023/01/08 09:25:12;;;;;;;11.32;3.33;;;;;;;6.65;100.00;99840.31;5031975;28;20037;-58
2023/01/08 09:27:37;;;;;;;7.95;2.10;;;;;;;6.66;100.00;99835.91;5031985;28;20061;-59
2023/01/08 09:30:03;;;;;;;7.95;2.13;;;;;;;6.64;100.00;99842.94;5031996;28;20041;-58
2023/01/08 09:32:28;;;;;;;10.40;2.22;;;;;;;6.71;100.00;99844.47;5032181;28;20029;-55
2023/01/08 09:34:54;;;;;;;11.98;2.70;;;;;;;6.76;100.00;99859.09;5032094;28;20373;-57
2023/01/08 09:37:19;;;;;;;11.32;3.65;;;;;;;6.85;100.00;99851.84;5031953;28;20029;-56
2023/01/08 09:39:44;;;;;;;6.47;2.22;;;;;;;6.54;100.00;99781.38;5031938;28;20033;-57
2023/01/08 09:42:12;;;;;;;12.27;2.38;;;;;;;6.93;100.00;99845.47;5032369;28;20025;-58
2023/01/08 09:44:39;;;;;;;10.25;3.00;;;;;;;6.99;100.00;99850.50;5014461;28;20025;-57
2023/01/08 09:47:08;;;;;;;13.48;2.25;;;;;;;7.05;100.00;99847.69;5032030;28;20037;-57
2023/01/08 09:49:41;;;;;;;7.30;1.83;;;;;;;7.07;100.00;99845.00;5014207;28;20252;-59
2023/01/08 09:52:12;;;;;;;11.68;2.33;;;;;;;7.10;100.00;99844.91;5032303;28;20033;-58
2023/01/08 09:54:37;;;;;;;12.88;2.50;;;;;;;7.14;100.00;99849.13;5014248;28;20075;-58
2023/01/08 09:57:02;;;;;;;8.77;3.35;;;;;;;6.73;100.00;99754.59;5031471;28;20293;-57
2023/01/08 09:59:28;;;;;;;12.45;2.40;;;;;;;6.90;100.00;99779.31;5031697;28;20142;-58
2023/01/08 10:01:53;;;;;;;7.43;2.28;;;;;;;7.28;100.00;99842.50;5014033;28;20153;-59
2023/01/08 10:04:22;;;;;;;10.30;2.35;;;;;;;7.27;100.00;99837.31;5031792;28;20050;-58
2023/01/08 10:07:01;;;;;;;11.90;2.40;;;;;;;6.97;100.00;99781.69;5013071;28;20695;-58
2023/01/08 10:09:28;;;;;;;8.50;2.05;;;;;;;7.30;100.00;99819.75;5014058;28;20145;-59
2023/01/08 10:11:57;;;;;;;6.53;2.22;;;;;;;7.40;100.00;99824.66;5014142;28;20099;-57
2023/01/08 10:14:25;;;;;;;8.88;2.50;;;;;;;7.59;100.00;99849.31;5014155;28;20224;-59
2023/01/08 10:16:57;;;;;;;13.13;2.72;;;;;;;7.35;100.00;99760.22;5033269;28;20029;-58
2023/01/08 10:19:23;;;;;;;13.05;2.78;;;;;;;7.22;100.00;99719.72;5035436;28;20041;-59
2023/01/08 10:21:49;;;;;;;6.50;2.45;;;;;;;7.29;100.00;99736.06;5035667;28;20033;-58
2023/01/08 10:24:14;;;;;;;5.15;2.00;;;;;;;7.87;100.00;99832.50;4985539;28;20417;-58
2023/01/08 10:26:39;;;;;;;8.60;2.95;;;;;;;7.70;100.00;99802.59;5017548;28;20029;-55
2023/01/08 10:29:16;;;;;;;10.90;2.55;;;;;;;7.96;100.00;99825.22;5035473;28;20029;-58
2023/01/08 10:31:48;;;;;;;6.63;2.35;;;;;;;7.96;100.00;99831.31;5035332;28;20259;-58
2023/01/08 10:34:40;;;;;;;8.48;1.85;;;;;;;8.00;100.00;99819.78;5035419;28;20033;-58
2023/01/08 10:37:24;;;;;;;16.63;2.30;;;;;;;7.99;100.00;99812.00;5034911;28;20403;-58
2023/01/08 10:39:51;;;;;;;9.50;2.92;;;;;;;8.09;100.00;99819.44;5035303;28;20048;-58
2023/01/08 10:42:18;;;;;;;11.63;2.53;;;;;;;8.25;100.00;99817.94;5017531;28;20033;-59
2023/01/08 10:45:19;;;;;;;6.38;1.98;;;;;;;8.41;100.00;99816.44;5017572;28;20215;-58
2023/01/08 10:47:47;;;;;;;10.27;2.88;;;;;;;8.53;100.00;99812.47;5017740;28;20034;-59
2023/01/08 10:50:32;;;;;;;5.72;1.70;;;;;;;8.58;100.00;99807.06;5035176;28;20492;-59
2023/01/08 10:53:03;;;;;;;5.47;2.13;;;;;;;8.55;100.00;99810.66;5017394;28;20029;-60
2023/01/08 10:55:30;;;;;;;6.10;1.67;;;;;;;8.22;100.00;99739.41;5017572;28;20037;-54
2023/01/08 10:58:16;;;;;;;9.23;1.92;;;;;;;8.68;100.00;99806.63;5017431;28;20038;-57
2023/01/08 11:00:41;;;;;;;8.18;1.90;;;;;;;8.67;100.00;99804.91;5033497;28;20057;-59
2023/01/08 11:03:26;;;;;;;8.95;2.22;;;;;;;8.71;100.00;99800.38;5034733;28;20103;-58
2023/01/08 11:05:51;;;;;;;6.63;1.98;;;;;;;8.28;100.00;99715.63;5033953;28;20373;-58
2023/01/08 11:08:18;;;;;;;6.65;2.22;;;;;;;8.67;100.00;99809.31;5011555;28;20168;-65
2023/01/08 11:10:53;;;;;;;4.03;1.80;;;;;;;8.22;100.00;99723.69;5030630;28;20104;-66
2023/01/08 11:13:19;;;;;;;7.85;2.08;;;;;;;8.67;100.00;99804.06;5015520;28;20121;-68
2023/01/08 11:15:44;;;;;;;7.30;1.88;;;;;;;8.69;100.00;99787.34;5017397;28;20536;-66
2023/01/08 11:18:13;;;;;;;8.52;1.77;;;;;;;8.27;100.00;99716.50;5015911;28;20083;-65
2023/01/08 11:20:40;;;;;;;5.15;1.83;;;;;;;8.70;100.00;99790.84;5034055;28;20559;-66
2023/01/08 11:23:14;;;;;;;6.20;2.10;;;;;;;8.59;100.00;99779.91;5034284;28;20495;-65
2023/01/08 11:25:42;;;;;;;8.00;2.08;;;;;;;8.38;100.00;99721.31;5033940;28;20452;-65
2023/01/08 11:28:11;;;;;;;13.02;2.15;;;;;;;8.32;100.00;99719.78;5015465;28;20079;-66